COOK1: Arkansas River Nr Coolidge, KS

                                SHEF ID:       COOK1     ARKANSAS R NR COOLIDGE, KS
STATION TYPE:
Regulating: Stage = 8.00, Flow = 2050

PRECIP STAGE STAGE(2) RIV-FLOW WTR-TEMP CONDUCT BAT-LOAD
in ft ft cfs F umho/cm volt
Ccp-Rev Ccp-Rev Ccp-Rev Ccp-Rev Ccp-Rev Ccp-Rev Ccp-Rev
(America/Chicago)
07/10 00:00 0.00 2.50 2.63 54 76.17 5641 12.95
07/10 01:00 0.00 2.50 2.62 54 74.59 5650 12.89
07/10 02:00 0.00 2.49 2.63 53 73.22 5663 12.89
07/10 03:00 0.00 2.49 2.66 53 72.12 5675 12.89
07/10 04:00 0.00 2.48 2.66 52 71.11 5756 12.89
07/10 05:00 0.00 2.48 2.65 52 69.87 5789 12.83
07/10 06:00 0.00 2.50 2.63 54 68.79 5731 12.83
07/10 07:00 0.00 2.50 2.63 54 67.84 5717 12.77
07/10 08:00 0.00 2.49 2.66 53 67.59 5735 12.83
07/10 09:00 0.00 2.51 2.66 55 68.14 5051 12.95
07/10 10:00 0.00 2.51 2.66 55 69.96 5762 13.18
07/10 11:00 0.00 2.51 2.67 55 72.59 5764 13.53
07/10 12:00 0.00 2.51 2.68 55 75.29 5751 13.71
07/10 13:00 0.00 2.52 2.68 55 77.70 5728 13.77
07/10 14:00 0.00 2.52 2.68 55 79.99 5701 13.71
07/10 15:00 0.00 2.53 2.69 56 82.38 5665 13.77
07/10 16:00 0.00 2.53 2.68 56 83.35 5632 13.65
07/10 17:00 0.00 2.53 2.68 56 83.80 5620 13.59
07/10 18:00 0.00 2.53 2.62 56 84.25 5618 13.36
07/10 19:00 0.00 2.53 2.67 56 83.41 5659 13.18
07/10 20:00 0.00 2.54 2.63 57 82.18 5670 13.12
07/10 21:00 0.00 2.54 2.64 57 80.44 5666 13.07
07/10 22:00 0.00 2.54 2.63 57 78.87 5666 13.00
07/10 23:00 ---- ---- ---- ---- ---- ---- ----
Data processed at Thu 11Jul2024 04:30 GMT

Parsing this webpage?

Checkout our new Data API! CWMSDataAPI (CDA)

Timeseries IDs (TSIDs)

TSIDs used from left to right in the data table
COOL.Precip-Inc.Total.1Hour.1Hour.Ccp-Rev
COOL.Stage.Inst.1Hour.0.Ccp-Rev
COOL.Stage-Alt.Inst.1Hour.0.Ccp-Rev
COOL.Flow.Inst.1Hour.0.Ccp-Rev
COOL.Temp-Water.Inst.1Hour.0.Ccp-Rev
COOL.Cond.Inst.1Hour.0.Ccp-Rev
COOL.Volt-Battery Load.Inst.1Hour.0.Ccp-Rev

                            

All information presented herein is the property of the government of the United States of America and may be revised or deleted at any time without prior notice. Dissemination of this information without the expressed written consent of the Public Affairs Office, Tulsa District U.S. Army Corps of Engineers is strictly prohibited. These data are gathered electronically and, as presented, have NOT undergone any form of quality control. These data are NOT guaranteed to be valid or correct.